createdAt,value
2022-12-31T00:02:18.231Z,39.85
2022-12-31T00:04:44.871Z,35.75
2022-12-31T00:07:11.453Z,35.33
2022-12-31T00:09:37.997Z,35.88
2022-12-31T00:12:04.766Z,33.53
2022-12-31T00:14:31.402Z,36.80
2022-12-31T00:16:57.972Z,34.22
2022-12-31T00:19:24.579Z,35.28
2022-12-31T00:21:51.125Z,32.88
2022-12-31T00:24:17.689Z,33.90
2022-12-31T00:26:44.271Z,35.20
2022-12-31T00:29:10.844Z,34.42
2022-12-31T00:31:38.435Z,32.65
2022-12-31T00:34:05.982Z,34.03
2022-12-31T00:36:36.446Z,36.05
2022-12-31T00:39:05.253Z,36.45
2022-12-31T00:41:32.480Z,35.83
2022-12-31T00:43:59.226Z,39.15
2022-12-31T00:46:26.105Z,35.33
2022-12-31T00:48:53.040Z,37.28
2022-12-31T00:51:22.543Z,36.50
2022-12-31T00:53:49.734Z,36.70
2022-12-31T00:56:19.387Z,36.78
2022-12-31T00:58:46.258Z,36.78
2022-12-31T01:01:39.048Z,36.35
2022-12-31T01:04:07.765Z,35.45
2022-12-31T01:06:34.871Z,36.60
2022-12-31T01:09:01.481Z,34.13
2022-12-31T01:11:31.081Z,35.47
2022-12-31T01:13:59.301Z,34.70
2022-12-31T01:16:37.976Z,34.53
2022-12-31T01:19:07.961Z,33.67
2022-12-31T01:21:36.145Z,34.60
2022-12-31T01:24:03.331Z,34.08
2022-12-31T01:26:30.139Z,33.00
2022-12-31T01:28:57.024Z,33.22
2022-12-31T01:31:24.223Z,35.65
2022-12-31T01:33:51.933Z,32.47
2022-12-31T01:36:27.575Z,33.03
2022-12-31T01:38:56.049Z,32.95
2022-12-31T01:41:25.840Z,34.40
2022-12-31T01:43:54.406Z,36.60
2022-12-31T01:46:42.932Z,32.63
2022-12-31T01:49:35.320Z,34.13
2022-12-31T01:52:30.372Z,34.28
2022-12-31T01:55:38.368Z,35.90
2022-12-31T01:58:17.319Z,34.88
2022-12-31T02:00:45.179Z,33.63
2022-12-31T02:03:13.291Z,35.10
2022-12-31T02:06:01.903Z,37.47
2022-12-31T02:08:28.588Z,34.05
2022-12-31T02:10:55.119Z,34.78
2022-12-31T02:13:21.906Z,34.10
2022-12-31T02:15:58.364Z,34.85
2022-12-31T02:18:46.600Z,37.17
2022-12-31T02:21:32.017Z,35.33
2022-12-31T02:24:17.106Z,36.47
2022-12-31T02:27:15.901Z,35.03
2022-12-31T02:30:11.241Z,37.40
2022-12-31T02:32:50.194Z,36.67
2022-12-31T02:35:19.783Z,39.90
2022-12-31T02:37:51.653Z,34.83
2022-12-31T02:40:21.392Z,35.05
2022-12-31T02:42:54.872Z,34.85
2022-12-31T02:45:29.708Z,38.05
2022-12-31T02:48:05.245Z,34.17
2022-12-31T02:51:12.737Z,33.20
2022-12-31T02:54:04.580Z,33.05
2022-12-31T02:56:35.389Z,34.80
2022-12-31T02:59:22.959Z,35.80
2022-12-31T03:02:14.105Z,35.25
2022-12-31T03:04:43.932Z,32.85
2022-12-31T03:07:14.856Z,33.35
2022-12-31T03:09:41.430Z,35.03
2022-12-31T03:12:28.231Z,32.72
2022-12-31T03:14:54.857Z,32.65
2022-12-31T03:17:21.453Z,34.92
2022-12-31T03:20:06.370Z,33.13
2022-12-31T03:22:37.743Z,32.88
2022-12-31T03:25:29.984Z,33.30
2022-12-31T03:27:56.770Z,37.35
2022-12-31T03:30:24.832Z,33.42
2022-12-31T03:32:52.406Z,33.08
2022-12-31T03:35:20.813Z,34.30
2022-12-31T03:37:49.026Z,32.78
2022-12-31T03:40:16.883Z,31.92
2022-12-31T03:42:43.513Z,32.55
2022-12-31T03:45:11.626Z,34.20
2022-12-31T03:47:38.393Z,32.53
2022-12-31T03:50:06.928Z,33.47
2022-12-31T03:52:33.609Z,33.67
2022-12-31T03:55:02.140Z,32.60
2022-12-31T03:57:29.269Z,33.22
2022-12-31T03:59:55.954Z,31.55
2022-12-31T04:02:28.636Z,35.70
2022-12-31T04:04:55.960Z,34.55
2022-12-31T04:07:22.669Z,32.53
2022-12-31T04:09:49.427Z,35.13
2022-12-31T04:12:16.024Z,34.40
2022-12-31T04:14:42.596Z,34.97
2022-12-31T04:17:09.253Z,34.97
2022-12-31T04:19:35.847Z,34.05
2022-12-31T04:22:02.402Z,34.60
2022-12-31T04:24:29.100Z,35.35
2022-12-31T04:26:55.758Z,33.72
2022-12-31T04:29:22.536Z,35.72
2022-12-31T04:31:49.098Z,37.28
2022-12-31T04:34:15.723Z,39.15
2022-12-31T04:36:42.280Z,36.00
2022-12-31T04:39:09.288Z,36.00
2022-12-31T04:41:35.871Z,35.95
2022-12-31T04:44:02.581Z,37.20
2022-12-31T04:46:31.859Z,37.95
2022-12-31T04:48:59.133Z,36.95
2022-12-31T04:51:27.310Z,38.25
2022-12-31T04:53:54.674Z,38.13
2022-12-31T04:56:21.342Z,37.42
2022-12-31T04:58:47.925Z,36.53
2022-12-31T05:01:15.108Z,34.05
2022-12-31T05:03:41.799Z,37.17
2022-12-31T05:06:12.634Z,36.75
2022-12-31T05:08:39.355Z,36.13
2022-12-31T05:11:05.979Z,38.88
2022-12-31T05:13:33.556Z,36.80
2022-12-31T05:16:02.147Z,36.08
2022-12-31T05:18:29.655Z,36.50
2022-12-31T05:20:56.220Z,36.03
2022-12-31T05:23:23.202Z,35.80
2022-12-31T05:25:49.921Z,36.28
2022-12-31T05:28:17.114Z,37.83
2022-12-31T05:30:44.225Z,36.20
2022-12-31T05:33:10.987Z,36.60
2022-12-31T05:35:37.578Z,36.20
2022-12-31T05:38:04.200Z,38.60
2022-12-31T05:40:30.794Z,36.92
2022-12-31T05:42:57.345Z,39.50
2022-12-31T05:45:30.161Z,37.85
2022-12-31T05:47:57.444Z,38.38
2022-12-31T05:50:24.058Z,37.10
2022-12-31T05:52:50.701Z,40.17
2022-12-31T05:55:17.493Z,38.60
2022-12-31T05:57:44.062Z,38.35
2022-12-31T06:00:11.706Z,38.53
2022-12-31T06:02:38.403Z,48.90
2022-12-31T06:05:05.514Z,42.78
2022-12-31T06:07:32.123Z,39.55
2022-12-31T06:09:58.767Z,48.92
2022-12-31T06:12:25.516Z,38.92
2022-12-31T06:14:52.234Z,36.80
2022-12-31T06:17:19.227Z,36.90
2022-12-31T06:19:46.984Z,38.80
2022-12-31T06:22:14.068Z,34.40
2022-12-31T06:24:40.732Z,38.97
2022-12-31T06:27:07.326Z,33.70
2022-12-31T06:29:33.895Z,35.50
2022-12-31T06:32:00.444Z,33.97
2022-12-31T06:34:27.038Z,35.55
2022-12-31T06:36:53.679Z,34.97
2022-12-31T06:39:20.365Z,36.60
2022-12-31T06:41:46.912Z,34.83
2022-12-31T06:44:14.906Z,34.05
2022-12-31T06:46:41.532Z,40.50
2022-12-31T06:49:08.142Z,33.45
2022-12-31T06:51:34.698Z,35.00
2022-12-31T06:54:01.449Z,35.10
2022-12-31T06:56:33.966Z,37.38
2022-12-31T06:59:01.653Z,33.05
2022-12-31T07:01:32.200Z,36.95
2022-12-31T07:04:23.719Z,37.33
2022-12-31T07:06:53.385Z,34.88
2022-12-31T07:09:27.747Z,33.60
2022-12-31T07:12:16.455Z,37.35
2022-12-31T07:15:02.556Z,36.22
2022-12-31T07:18:09.979Z,34.97
2022-12-31T07:20:36.884Z,36.08
2022-12-31T07:23:03.622Z,36.30
2022-12-31T07:25:31.264Z,32.55
2022-12-31T07:28:07.783Z,36.33
2022-12-31T07:30:34.346Z,31.58
2022-12-31T07:33:25.489Z,36.83
2022-12-31T07:36:13.716Z,36.22
2022-12-31T07:39:01.519Z,39.88
2022-12-31T07:41:37.412Z,35.22
2022-12-31T07:44:11.207Z,38.33
2022-12-31T07:46:57.473Z,39.70
2022-12-31T07:49:25.849Z,35.28
2022-12-31T07:51:53.528Z,38.97
2022-12-31T07:54:20.553Z,37.10
2022-12-31T07:56:48.094Z,36.08
2022-12-31T07:59:33.776Z,42.67
2022-12-31T08:02:15.621Z,39.28
2022-12-31T08:05:01.785Z,41.10
2022-12-31T08:07:34.499Z,43.10
2022-12-31T08:10:08.314Z,39.75
2022-12-31T08:12:39.865Z,38.85
2022-12-31T08:15:15.268Z,40.25
2022-12-31T08:17:42.425Z,47.55
2022-12-31T08:20:16.392Z,39.60
2022-12-31T08:23:08.988Z,39.78
2022-12-31T08:25:54.550Z,50.15
2022-12-31T08:28:49.097Z,38.72
2022-12-31T08:31:27.891Z,43.03
2022-12-31T08:34:06.375Z,41.25
2022-12-31T08:36:53.430Z,42.88
2022-12-31T08:39:38.213Z,48.28
2022-12-31T08:42:35.731Z,44.08
2022-12-31T08:45:20.279Z,43.53
2022-12-31T08:47:59.629Z,47.53
2022-12-31T08:50:27.196Z,44.05
2022-12-31T08:52:54.463Z,42.92
2022-12-31T08:55:21.455Z,47.30
2022-12-31T08:58:03.267Z,49.00
2022-12-31T09:00:31.015Z,47.00
2022-12-31T09:03:24.590Z,48.20
2022-12-31T09:05:54.163Z,47.78
2022-12-31T09:08:26.605Z,49.42
2022-12-31T09:11:00.898Z,52.50
2022-12-31T09:13:52.802Z,54.45
2022-12-31T09:16:30.567Z,56.35
2022-12-31T09:18:57.169Z,61.08
2022-12-31T09:21:23.940Z,59.50
2022-12-31T09:23:50.772Z,60.63
2022-12-31T09:26:29.262Z,64.60
2022-12-31T09:29:28.155Z,63.45
2022-12-31T09:32:08.799Z,64.90
2022-12-31T09:35:04.050Z,66.13
2022-12-31T09:37:50.548Z,66.57
2022-12-31T09:40:40.508Z,67.50
2022-12-31T09:43:44.330Z,67.78
2022-12-31T09:46:38.836Z,68.15
2022-12-31T09:49:21.561Z,69.17
2022-12-31T09:52:29.447Z,65.35
2022-12-31T09:54:58.625Z,66.07
2022-12-31T09:57:39.344Z,68.53
2022-12-31T10:00:21.744Z,66.78
2022-12-31T10:03:15.725Z,63.13
2022-12-31T10:06:04.432Z,69.53
2022-12-31T10:09:02.440Z,70.18
2022-12-31T10:11:31.960Z,71.45
2022-12-31T10:14:17.108Z,72.18
2022-12-31T10:17:07.288Z,73.50
2022-12-31T10:19:43.663Z,72.15
2022-12-31T10:22:48.566Z,73.55
2022-12-31T10:25:40.316Z,71.13
2022-12-31T10:28:28.296Z,75.03
2022-12-31T10:31:26.070Z,75.15
2022-12-31T10:34:30.866Z,78.70
2022-12-31T10:37:09.345Z,75.13
2022-12-31T10:40:00.817Z,75.75
2022-12-31T10:42:48.251Z,71.22
2022-12-31T10:46:03.156Z,70.75
2022-12-31T10:48:40.329Z,71.75
2022-12-31T10:51:31.782Z,68.88
2022-12-31T10:54:19.939Z,70.70
2022-12-31T10:57:32.668Z,68.18
2022-12-31T11:00:12.379Z,73.88
2022-12-31T11:02:57.260Z,66.50
2022-12-31T11:06:00.766Z,77.15
2022-12-31T11:08:56.859Z,59.78
2022-12-31T11:11:47.940Z,69.35
2022-12-31T11:14:49.887Z,60.55
2022-12-31T11:17:21.198Z,69.40
2022-12-31T11:20:30.833Z,66.63
2022-12-31T11:23:02.615Z,65.18
2022-12-31T11:25:34.949Z,60.42
2022-12-31T11:28:20.574Z,59.22
2022-12-31T11:31:09.065Z,58.58
2022-12-31T11:33:50.463Z,58.20
2022-12-31T11:36:31.432Z,72.40
2022-12-31T11:39:24.595Z,60.70
2022-12-31T11:42:20.588Z,57.05
2022-12-31T11:45:24.716Z,54.38
2022-12-31T11:48:29.716Z,55.17
2022-12-31T11:51:23.691Z,51.70
2022-12-31T11:54:01.224Z,52.80
2022-12-31T11:56:35.502Z,53.97
2022-12-31T11:59:06.257Z,55.25
2022-12-31T12:02:01.728Z,54.53
2022-12-31T12:04:28.391Z,53.45
2022-12-31T12:06:55.075Z,57.63
2022-12-31T12:09:31.112Z,55.65
2022-12-31T12:12:03.839Z,58.50
2022-12-31T12:14:32.580Z,58.17
2022-12-31T12:17:04.671Z,57.53
2022-12-31T12:19:34.175Z,54.75
2022-12-31T12:22:19.852Z,61.92
2022-12-31T12:25:23.195Z,62.72
2022-12-31T12:27:50.060Z,61.30
2022-12-31T12:30:25.480Z,66.70
2022-12-31T12:32:57.731Z,77.75
2022-12-31T12:35:28.655Z,97.93
2022-12-31T12:38:04.182Z,100.78
2022-12-31T12:40:34.301Z,113.63
2022-12-31T12:43:02.614Z,113.35
2022-12-31T12:45:51.672Z,100.72
2022-12-31T12:48:34.553Z,90.60
2022-12-31T12:51:06.548Z,87.07
2022-12-31T12:53:57.005Z,92.18
2022-12-31T12:56:27.540Z,86.82
2022-12-31T12:59:19.691Z,75.55
2022-12-31T13:02:01.551Z,83.40
2022-12-31T13:05:27.694Z,92.97
2022-12-31T13:10:59.919Z,72.47
2022-12-31T13:13:32.258Z,67.05
2022-12-31T13:16:17.182Z,67.53
2022-12-31T13:22:01.579Z,69.65
2022-12-31T13:24:59.084Z,66.47
2022-12-31T13:27:37.998Z,62.05
2022-12-31T13:30:15.382Z,62.70
2022-12-31T13:32:59.369Z,59.28
2022-12-31T13:35:45.425Z,58.85
2022-12-31T13:38:21.723Z,56.47
2022-12-31T13:40:57.179Z,57.53
2022-12-31T13:43:51.085Z,57.45
2022-12-31T13:46:53.333Z,55.70
2022-12-31T13:49:43.824Z,53.83
2022-12-31T13:52:35.000Z,54.95
2022-12-31T13:55:37.167Z,54.88
2022-12-31T13:58:12.930Z,57.05
2022-12-31T14:01:15.861Z,57.70
2022-12-31T14:04:12.824Z,57.63
2022-12-31T14:07:07.675Z,63.92
2022-12-31T14:09:35.340Z,64.25
2022-12-31T14:12:20.255Z,67.63
2022-12-31T14:14:49.736Z,68.65
2022-12-31T14:17:19.358Z,73.03
2022-12-31T14:20:12.999Z,77.57
2022-12-31T14:23:22.045Z,80.80
2022-12-31T14:25:57.023Z,76.15
2022-12-31T14:28:29.964Z,114.07
2022-12-31T14:31:05.236Z,75.20
2022-12-31T14:33:43.275Z,72.07
2022-12-31T14:36:26.106Z,76.22
2022-12-31T14:39:29.484Z,75.53
2022-12-31T14:42:05.166Z,72.07
2022-12-31T14:45:13.415Z,75.28
2022-12-31T14:47:52.472Z,80.75
2022-12-31T14:50:28.154Z,81.85
2022-12-31T14:52:56.198Z,86.10
2022-12-31T14:55:29.387Z,85.70
2022-12-31T15:00:57.083Z,87.60
2022-12-31T15:03:33.388Z,89.82
2022-12-31T15:06:28.619Z,90.90
2022-12-31T15:09:16.789Z,87.05
2022-12-31T15:12:04.760Z,89.38
2022-12-31T15:14:49.628Z,89.53
2022-12-31T15:17:21.847Z,90.03
2022-12-31T15:20:17.440Z,91.95
2022-12-31T15:22:48.785Z,91.57
2022-12-31T15:25:38.385Z,91.05
2022-12-31T15:28:30.557Z,93.40
2022-12-31T15:31:04.844Z,92.72
2022-12-31T15:33:54.762Z,96.30
2022-12-31T15:36:28.219Z,95.65
2022-12-31T15:39:36.959Z,94.18
2022-12-31T15:42:36.809Z,89.35
2022-12-31T15:45:03.793Z,91.75
2022-12-31T15:47:37.673Z,96.70
2022-12-31T15:50:12.355Z,95.50
2022-12-31T15:52:47.823Z,94.28
2022-12-31T15:55:44.149Z,96.75
2022-12-31T15:58:15.718Z,92.35
2022-12-31T16:00:51.398Z,97.38
2022-12-31T16:03:24.106Z,95.75
2022-12-31T16:05:52.428Z,98.78
2022-12-31T16:08:25.535Z,96.60
2022-12-31T16:10:54.469Z,101.50
2022-12-31T16:13:23.866Z,103.18
2022-12-31T16:15:57.743Z,98.20
2022-12-31T16:18:24.376Z,99.28
2022-12-31T16:20:51.960Z,100.68
2022-12-31T16:23:22.710Z,103.53
2022-12-31T16:25:51.601Z,102.68
2022-12-31T16:28:31.251Z,104.07
2022-12-31T16:31:04.198Z,101.30
2022-12-31T16:33:31.296Z,99.40
2022-12-31T16:36:00.636Z,101.15
2022-12-31T16:38:33.056Z,99.25
2022-12-31T16:41:02.735Z,97.05
2022-12-31T16:43:40.724Z,99.10
2022-12-31T16:46:30.506Z,98.10
2022-12-31T16:49:16.878Z,94.70
2022-12-31T16:51:43.461Z,98.78
2022-12-31T16:54:25.913Z,98.82
2022-12-31T16:56:52.771Z,93.88
2022-12-31T16:59:35.958Z,100.15
2022-12-31T17:02:11.564Z,102.20
2022-12-31T17:04:43.213Z,98.50
2022-12-31T17:07:27.361Z,98.30
2022-12-31T17:10:36.172Z,93.18
2022-12-31T17:13:36.172Z,93.75
2022-12-31T17:16:03.815Z,89.43
2022-12-31T17:18:38.631Z,102.63
2022-12-31T17:21:09.705Z,102.60
2022-12-31T17:23:39.844Z,102.60
2022-12-31T17:26:06.508Z,99.30
2022-12-31T17:28:41.996Z,102.13
2022-12-31T17:31:27.964Z,96.82
2022-12-31T17:34:04.325Z,101.53
2022-12-31T17:36:31.079Z,93.10
2022-12-31T17:39:17.469Z,94.10
2022-12-31T17:41:46.291Z,81.80
2022-12-31T17:44:20.733Z,96.85
2022-12-31T17:46:49.244Z,83.18
2022-12-31T17:49:16.161Z,88.85
2022-12-31T17:51:47.596Z,89.50
2022-12-31T17:54:18.950Z,90.32
2022-12-31T17:56:46.332Z,83.50
2022-12-31T17:59:18.278Z,83.07
2022-12-31T18:01:45.480Z,79.97
2022-12-31T18:04:17.318Z,81.38
2022-12-31T18:06:44.676Z,74.88
2022-12-31T18:09:11.641Z,84.85
2022-12-31T18:11:40.395Z,71.95
2022-12-31T18:14:07.262Z,71.95
2022-12-31T18:16:34.390Z,64.53
2022-12-31T18:19:01.423Z,66.18
2022-12-31T18:21:34.771Z,64.03
2022-12-31T18:26:29.544Z,65.32
2022-12-31T18:29:10.487Z,63.65
2022-12-31T18:31:37.569Z,57.35
2022-12-31T18:34:04.244Z,57.58
2022-12-31T18:36:30.933Z,59.03
2022-12-31T18:38:57.459Z,59.63
2022-12-31T18:41:27.791Z,57.88
2022-12-31T18:43:55.555Z,58.65
2022-12-31T18:46:24.172Z,57.75
2022-12-31T18:48:51.167Z,55.90
2022-12-31T18:51:21.682Z,52.33
2022-12-31T18:53:51.008Z,52.50
2022-12-31T18:56:19.941Z,50.63
2022-12-31T18:58:47.541Z,47.72
2022-12-31T19:01:36.811Z,50.72
2022-12-31T19:04:13.394Z,51.40
2022-12-31T19:06:40.087Z,51.47
2022-12-31T19:09:30.402Z,52.92
2022-12-31T19:11:53.291Z,48.05
2022-12-31T19:14:24.162Z,53.10
2022-12-31T19:16:52.363Z,54.17
2022-12-31T19:19:19.141Z,48.45
2022-12-31T19:21:46.214Z,49.17
2022-12-31T19:24:17.663Z,51.88
2022-12-31T19:26:44.523Z,50.33
2022-12-31T19:29:25.455Z,46.53
2022-12-31T19:31:52.367Z,46.30
2022-12-31T19:34:19.039Z,47.00
2022-12-31T19:36:46.339Z,47.97
2022-12-31T19:39:19.533Z,51.75
2022-12-31T19:41:50.137Z,49.17
2022-12-31T19:44:21.179Z,47.72
2022-12-31T19:46:49.250Z,51.78
2022-12-31T19:49:15.880Z,52.38
2022-12-31T19:51:42.483Z,54.20
2022-12-31T19:54:11.831Z,54.08
2022-12-31T19:56:38.428Z,50.58
2022-12-31T19:59:09.473Z,47.15
2022-12-31T20:01:36.212Z,52.55
2022-12-31T20:04:02.933Z,55.80
2022-12-31T20:06:29.504Z,57.60
2022-12-31T20:08:56.181Z,54.75
2022-12-31T20:11:24.361Z,55.50
2022-12-31T20:13:53.956Z,58.05
2022-12-31T20:16:23.572Z,61.85
2022-12-31T20:18:50.804Z,58.30
2022-12-31T20:21:23.814Z,58.13
2022-12-31T20:23:52.303Z,52.05
2022-12-31T20:26:20.182Z,55.78
2022-12-31T20:28:47.020Z,55.85
2022-12-31T20:31:16.483Z,56.95
2022-12-31T20:33:43.531Z,63.63
2022-12-31T20:36:12.895Z,63.03
2022-12-31T20:38:39.563Z,64.22
2022-12-31T20:41:11.119Z,67.13
2022-12-31T20:43:37.787Z,67.97
2022-12-31T20:46:15.707Z,68.70
2022-12-31T20:48:42.985Z,69.32
2022-12-31T20:51:09.816Z,64.57
2022-12-31T20:53:36.389Z,66.88
2022-12-31T20:56:07.754Z,70.35
2022-12-31T20:58:34.771Z,68.43
2022-12-31T21:01:01.557Z,68.95
2022-12-31T21:04:03.687Z,65.45
2022-12-31T21:06:15.600Z,63.97
2022-12-31T21:08:42.340Z,63.85
2022-12-31T21:11:28.286Z,53.90
2022-12-31T21:13:58.715Z,53.35
2022-12-31T21:16:26.133Z,53.45
2022-12-31T21:18:52.952Z,53.75
2022-12-31T21:21:20.104Z,55.22
2022-12-31T21:23:46.791Z,52.63
2022-12-31T21:26:13.504Z,49.67
2022-12-31T21:28:41.599Z,50.13
2022-12-31T21:31:11.431Z,49.65
2022-12-31T21:33:38.291Z,50.60
2022-12-31T21:36:05.186Z,49.45
2022-12-31T21:38:32.238Z,47.60
2022-12-31T21:41:06.781Z,50.65
2022-12-31T21:43:33.865Z,47.05
2022-12-31T21:46:06.096Z,46.50
2022-12-31T21:48:33.671Z,47.20
2022-12-31T21:51:27.127Z,48.50
2022-12-31T21:53:53.954Z,50.45
2022-12-31T21:56:21.703Z,52.22
2022-12-31T21:59:15.339Z,49.60
2022-12-31T22:02:00.852Z,49.65
2022-12-31T22:05:00.817Z,45.30
2022-12-31T22:07:14.593Z,53.08
2022-12-31T22:09:41.117Z,58.60
2022-12-31T22:12:07.873Z,52.10
2022-12-31T22:14:34.402Z,52.80
2022-12-31T22:17:01.660Z,50.65
2022-12-31T22:19:28.191Z,53.45
2022-12-31T22:21:54.811Z,55.50
2022-12-31T22:24:21.362Z,50.22
2022-12-31T22:26:47.912Z,55.42
2022-12-31T22:29:14.728Z,57.40
2022-12-31T22:31:41.320Z,53.40
2022-12-31T22:34:07.890Z,55.40
2022-12-31T22:36:34.533Z,66.47
2022-12-31T22:39:01.168Z,54.10
2022-12-31T22:41:28.262Z,46.78
2022-12-31T22:44:02.983Z,49.10
2022-12-31T22:46:31.730Z,48.17
2022-12-31T22:49:00.174Z,106.20
2022-12-31T22:51:55.233Z,67.93
2022-12-31T22:54:16.188Z,74.60
2022-12-31T22:56:42.794Z,73.22
2022-12-31T22:59:09.971Z,75.70
2022-12-31T23:01:37.187Z,66.47
2022-12-31T23:04:04.377Z,55.08
2022-12-31T23:06:31.094Z,52.03
2022-12-31T23:09:16.456Z,55.05
2022-12-31T23:11:43.624Z,53.85
2022-12-31T23:14:34.364Z,49.10
2022-12-31T23:17:30.745Z,49.33
2022-12-31T23:20:18.210Z,52.35
2022-12-31T23:23:03.826Z,52.28
2022-12-31T23:25:52.749Z,48.80
2022-12-31T23:28:24.594Z,48.35
2022-12-31T23:30:52.240Z,47.75
2022-12-31T23:33:22.196Z,54.17
2022-12-31T23:35:48.986Z,50.38
2022-12-31T23:38:17.544Z,62.78
2022-12-31T23:40:44.763Z,56.13
2022-12-31T23:43:21.114Z,53.00
2022-12-31T23:45:49.841Z,58.53
2022-12-31T23:48:16.353Z,54.85
2022-12-31T23:50:45.379Z,55.13
2022-12-31T23:53:15.835Z,61.20
2022-12-31T23:55:42.404Z,55.80
2022-12-31T23:58:08.955Z,60.67
